Cut Bank Municipal Airport
KCTB : now visible

Airfield :











YOU CAN JOIN US ON...

 
LOGIN :

Register | Disclaimer

   EN    FR    IT 

 









Legend :    VFR   Marginal VFR   IFR   Intensive IFR   Very Intensive IFR
Visi :
Ceiling :
>= 8 km
>= 3000ft
5 to 8 km
1000 to 3000 ft
1500m to 5 km
500 to 1000 ft
800 to 1500m
200 to 500 ft
< 800m
< 200 ft
Symbols :   Thunderstorms  Fog  Heavy snow  Heavy precipitations  Wind > 20 kt






- Airport Elevation : 3854 ft


KCTB - Cut Bank Municipal

CURRENT METAR :
  • 080656Z AUTO 35009KT 5SM BR FEW008 OVC021 M07/M09 A2974 RMK AO2 SLP101 T10721094 400671072

EXPIRED METARs :
  • 080556Z AUTO 36013KT 4SM BR SCT006 OVC018 M07/M09 A2975 RMK AO2 SLP104 T10721094 11017 21072 53008
  • 080456Z AUTO 35018KT 6SM HZ BKN009 OVC019 M07/M09 A2973 RMK AO2 SLP099 T10671094
  • 080445Z AUTO 36016KT 6SM HZ SCT009 OVC019 M07/M09 A2973 RMK AO2 T10671094
  • 080426Z AUTO 35017KT 6SM HZ BKN019 M07/M09 A2974 RMK AO2 T10671094

TAF KCTB
Valid from the 08 at 06:00 until the 09 at 06:00 UTC


080525Z 0806/0906 35009KT 6SM BR VCSH OVC020
FM080900 01007KT 4SM BR OVC015
TEMPO 0809/0811 3/4SM -SN BR BKN010
FM081100 35013G23KT 3/4SM -SN BLSN SCT030 OVC050
FM081700 34014KT P6SM SCT045 OVC060
PROB30 0817/0819 4SM -SN BKN035
FM081900 34009KT P6SM SCT030 BKN080



MET'MAP, your aeronautical weather chart ! - Copyright ORBIFLY December 2007 - Disclaimer

ORBIFLY MET'MAP TEAM :

Programming & Development : Alexandra Zaïnal
Concept & original design : Baudouin d'Aumeries
Assistance for programming : Marc-Olivier Méhu
Technical & hardware support : Manuel Goepfert

Contact : metmap@orbifly.com




SOURCES & CREDITS :

   NOAA       Earth
Advisory